BIRK

Reykjavik Airport

Reykjavik, Iceland
METAR BIRK 161535Z 10022G33KT 3500 -RA BR OVC027 07/04 Q0997
Observed Flight Rules
Nov-16 @ 15:35 UTC (29 minutes ago) Instrument Flight Rules
Wind Visibility Clouds Conditions
100° at 22 knots
 Gusting to 33 knots
3,492 meters
  • Overcast at 2,700' AGL
  • Light Rain
  • Mist
Temperatures Readings
Current 7°C / 45°F
Dewpoint 4°C / 39°F
Humidity 81%
Altimeter 29.44" Hg
Pressure 997 hPa
Elevation 61
METAR BIRK 161535Z 10022G33KT 3500 -RA BR OVC027 07/04 Q0997
Observed Flight Rules
Nov-16 @ 15:35 UTC
(29 minutes ago)
IFR
Wind Visibility
100° at 22 knots
 Gusting to 33 knots
3,492 meters
Clouds
  • Overcast at 2,700' AGL
Conditions
  • Light Rain
  • Mist
Temperature Dewpoint
7°C / 45°F 4°C / 39°F
Humidity Altimeter Pressure
81% 29.44" Hg 997 hPa